createdAt,value
2018-12-13T00:02:42.228Z,8.97
2018-12-13T00:07:28.733Z,10.63
2018-12-13T00:12:14.819Z,12.53
2018-12-13T00:17:01.023Z,11.40
2018-12-13T00:21:46.200Z,9.43
2018-12-13T00:26:32.615Z,8.63
2018-12-13T00:31:17.864Z,7.23
2018-12-13T00:36:02.288Z,7.83
2018-12-13T00:40:47.941Z,6.93
2018-12-13T00:45:33.177Z,7.37
2018-12-13T00:50:21.209Z,8.50
2018-12-13T00:55:05.631Z,8.27
2018-12-13T00:59:50.894Z,8.60
2018-12-13T01:04:35.048Z,7.80
2018-12-13T01:09:23.441Z,6.70
2018-12-13T01:14:08.661Z,7.67
2018-12-13T01:18:54.554Z,9.07
2018-12-13T01:23:40.442Z,7.40
2018-12-13T01:28:25.852Z,7.07
2018-12-13T01:33:11.137Z,8.40
2018-12-13T01:37:57.863Z,7.47
2018-12-13T01:42:46.529Z,6.27
2018-12-13T01:47:31.132Z,7.47
2018-12-13T01:52:15.529Z,6.97
2018-12-13T01:57:00.791Z,6.50
2018-12-13T02:01:46.022Z,7.13
2018-12-13T02:06:32.392Z,9.03
2018-12-13T02:11:20.549Z,12.00
2018-12-13T02:16:05.876Z,10.67
2018-12-13T02:20:50.961Z,9.40
2018-12-13T02:25:36.184Z,10.83
2018-12-13T02:30:21.530Z,10.07
2018-12-13T02:35:06.865Z,10.13
2018-12-13T02:39:52.249Z,9.73
2018-12-13T02:44:36.537Z,8.97
2018-12-13T02:49:24.423Z,7.60
2018-12-13T02:54:09.649Z,7.10
2018-12-13T02:58:55.068Z,7.37
2018-12-13T03:03:40.273Z,7.80
2018-12-13T03:08:24.708Z,7.77
2018-12-13T03:13:09.837Z,8.27
2018-12-13T03:17:55.269Z,7.30
2018-12-13T03:22:39.461Z,7.13
2018-12-13T03:27:25.741Z,7.50
2018-12-13T03:32:10.943Z,8.80
2018-12-13T03:36:57.657Z,6.90
2018-12-13T03:41:41.994Z,6.27
2018-12-13T03:46:28.299Z,5.70
2018-12-13T03:51:13.422Z,6.40
2018-12-13T03:56:03.841Z,5.50
2018-12-13T04:00:49.003Z,6.23
2018-12-13T04:05:34.455Z,6.80
2018-12-13T04:10:18.762Z,8.83
2018-12-13T04:15:04.254Z,8.60
2018-12-13T04:19:49.439Z,10.40
2018-12-13T04:24:34.487Z,7.93
2018-12-13T04:29:18.793Z,7.87
2018-12-13T04:34:03.898Z,7.30
2018-12-13T04:38:52.136Z,6.77
2018-12-13T04:43:37.400Z,6.60
2018-12-13T04:48:22.926Z,8.03
2018-12-13T04:53:08.921Z,56.00
2018-12-13T04:57:54.453Z,10.70
2018-12-13T05:02:38.742Z,8.67
2018-12-13T05:07:24.114Z,7.50
2018-12-13T05:12:09.326Z,6.83
2018-12-13T05:16:54.697Z,6.30
2018-12-13T05:21:38.887Z,6.83
2018-12-13T05:26:24.342Z,6.40
2018-12-13T05:31:09.576Z,7.07
2018-12-13T05:35:53.910Z,6.27
2018-12-13T05:40:39.340Z,6.90
2018-12-13T05:45:24.485Z,6.30
2018-12-13T05:50:09.693Z,6.03
2018-12-13T05:54:54.926Z,6.17
2018-12-13T05:59:40.060Z,5.57
2018-12-13T06:04:25.355Z,5.47
2018-12-13T06:09:09.452Z,5.97
2018-12-13T06:13:54.627Z,8.40
2018-12-13T06:18:39.909Z,6.93
2018-12-13T06:23:25.748Z,6.37
2018-12-13T06:28:11.259Z,6.53
2018-12-13T06:32:56.588Z,7.63
2018-12-13T06:37:41.860Z,6.07
2018-12-13T06:42:26.067Z,4.97
2018-12-13T06:47:11.055Z,5.43
2018-12-13T06:51:56.911Z,6.57
2018-12-13T06:56:41.148Z,8.63
2018-12-13T07:01:25.346Z,9.17
2018-12-13T07:06:09.727Z,7.73
2018-12-13T07:10:54.894Z,5.73
2018-12-13T07:15:40.126Z,7.13
2018-12-13T07:20:26.264Z,6.37
2018-12-13T07:25:15.072Z,5.80
2018-12-13T07:30:00.217Z,5.80
2018-12-13T07:34:45.447Z,5.47
2018-12-13T07:39:30.916Z,5.27
2018-12-13T07:44:16.096Z,5.57
2018-12-13T07:49:01.567Z,6.57
2018-12-13T07:53:45.909Z,5.73
2018-12-13T07:58:31.106Z,4.80
2018-12-13T08:03:16.283Z,4.33
2018-12-13T08:08:01.670Z,4.67
2018-12-13T08:12:47.235Z,4.97
2018-12-13T08:17:33.146Z,5.40
2018-12-13T08:22:18.070Z,2.70
2018-12-13T08:27:03.214Z,4.53
2018-12-13T08:31:48.346Z,4.70
2018-12-13T08:36:33.661Z,3.90
2018-12-13T08:41:18.788Z,4.53
2018-12-13T08:46:04.030Z,2.93
2018-12-13T08:50:48.287Z,4.90
2018-12-13T08:55:56.034Z,5.17
2018-12-13T09:00:41.173Z,4.70
2018-12-13T09:05:26.347Z,3.77
2018-12-13T09:10:10.690Z,2.37
2018-12-13T09:14:56.277Z,3.80
2018-12-13T09:19:41.454Z,3.90
2018-12-13T09:24:25.662Z,3.77
2018-12-13T09:29:10.927Z,4.77
2018-12-13T09:33:55.353Z,4.10
2018-12-13T09:38:40.077Z,3.93
2018-12-13T09:43:25.580Z,3.67
2018-12-13T09:48:11.139Z,3.93
2018-12-13T09:52:56.464Z,3.60
2018-12-13T09:57:41.028Z,3.10
2018-12-13T10:02:26.317Z,3.07
2018-12-13T10:07:11.533Z,3.10
2018-12-13T10:11:56.836Z,3.90
2018-12-13T10:16:42.228Z,3.10
2018-12-13T10:21:27.413Z,3.10
2018-12-13T10:26:11.769Z,2.60
2018-12-13T10:30:56.138Z,1.73
2018-12-13T10:35:41.523Z,2.40
2018-12-13T10:40:26.741Z,2.47
2018-12-13T10:45:11.947Z,2.70
2018-12-13T10:49:57.155Z,2.70
2018-12-13T10:54:42.933Z,2.67
2018-12-13T10:59:28.066Z,2.97
2018-12-13T11:04:12.652Z,2.23
2018-12-13T11:08:59.600Z,3.20
2018-12-13T11:13:45.170Z,2.67
2018-12-13T11:18:30.347Z,2.53
2018-12-13T11:23:15.568Z,3.40
2018-12-13T11:28:15.903Z,2.43
2018-12-13T11:33:06.463Z,3.30
2018-12-13T11:37:50.918Z,3.53
2018-12-13T11:42:35.221Z,4.13
2018-12-13T11:47:19.981Z,2.77
2018-12-13T11:52:05.464Z,3.47
2018-12-13T11:56:50.038Z,3.20
2018-12-13T12:01:34.261Z,3.33
2018-12-13T12:06:22.846Z,3.43
2018-12-13T12:11:08.013Z,3.07
2018-12-13T12:15:52.487Z,2.93
2018-12-13T12:20:37.733Z,2.83
2018-12-13T12:25:23.025Z,3.57
2018-12-13T12:30:08.269Z,2.67
2018-12-13T12:34:53.965Z,2.53
2018-12-13T12:39:38.287Z,2.60
2018-12-13T12:44:25.776Z,2.20
2018-12-13T12:49:10.953Z,2.33
2018-12-13T12:53:56.250Z,2.83
2018-12-13T12:58:42.483Z,2.40
2018-12-13T13:03:27.703Z,2.60
2018-12-13T13:08:12.893Z,3.03
2018-12-13T13:12:57.054Z,2.70
2018-12-13T13:17:42.330Z,3.83
2018-12-13T13:22:27.594Z,2.50
2018-12-13T13:27:12.868Z,3.03
2018-12-13T13:31:57.010Z,2.97
2018-12-13T13:36:42.403Z,2.90
2018-12-13T13:41:27.621Z,3.40
2018-12-13T13:46:12.787Z,3.80
2018-12-13T13:50:57.662Z,3.20
2018-12-13T13:55:43.043Z,2.63
2018-12-13T14:00:27.312Z,2.67
2018-12-13T14:05:11.685Z,2.80
2018-12-13T14:09:56.776Z,3.07
2018-12-13T14:14:42.156Z,2.80
2018-12-13T14:19:27.502Z,2.60
2018-12-13T14:24:11.904Z,2.77
2018-12-13T14:28:57.205Z,2.90
2018-12-13T14:33:42.293Z,3.27
2018-12-13T14:38:26.737Z,3.93
2018-12-13T14:43:11.938Z,6.07
2018-12-13T14:47:56.378Z,8.87
2018-12-13T14:52:41.528Z,10.23
2018-12-13T14:57:26.751Z,6.90
2018-12-13T15:02:12.378Z,6.00
2018-12-13T15:06:58.722Z,5.47
2018-12-13T15:11:43.865Z,5.23
2018-12-13T15:16:29.425Z,11.60
2018-12-13T15:21:14.637Z,15.07
2018-12-13T15:25:59.893Z,16.73
2018-12-13T15:30:43.963Z,15.50
2018-12-13T15:35:30.411Z,15.40
2018-12-13T15:40:15.661Z,18.83
2018-12-13T15:45:00.964Z,22.87
2018-12-13T15:49:46.360Z,20.13
2018-12-13T15:54:32.951Z,21.60
2018-12-13T15:59:18.257Z,15.50
2018-12-13T16:04:03.740Z,36.97
2018-12-13T16:08:49.014Z,61.40
2018-12-13T16:13:34.253Z,69.30
2018-12-13T16:18:18.558Z,114.90
2018-12-13T16:23:03.839Z,40.30
2018-12-13T16:27:49.150Z,56.27
2018-12-13T16:32:33.277Z,84.70
2018-12-13T16:37:17.764Z,47.47
2018-12-13T16:42:02.997Z,48.77
2018-12-13T16:46:48.386Z,56.47
2018-12-13T16:51:32.601Z,58.73
2018-12-13T16:56:17.888Z,72.03
2018-12-13T17:01:08.690Z,37.43
2018-12-13T17:05:53.798Z,30.07
2018-12-13T17:10:39.813Z,29.83
2018-12-13T17:15:25.105Z,23.60
2018-12-13T17:20:10.313Z,26.67
2018-12-13T17:24:54.702Z,24.60
2018-12-13T17:29:40.584Z,19.93
2018-12-13T17:34:26.796Z,20.90
2018-12-13T17:39:12.085Z,31.23
2018-12-13T17:43:57.653Z,18.17
2018-12-13T17:48:43.125Z,19.03
2018-12-13T17:53:29.447Z,11.90
2018-12-13T17:58:14.643Z,21.77
2018-12-13T18:02:59.934Z,14.47
2018-12-13T18:07:45.502Z,18.83
2018-12-13T18:12:29.781Z,15.37
2018-12-13T18:17:18.405Z,19.63
2018-12-13T18:22:04.718Z,15.27
2018-12-13T18:26:52.901Z,16.07
2018-12-13T18:31:38.120Z,17.53
2018-12-13T18:36:25.645Z,25.13
2018-12-13T18:41:11.872Z,25.57
2018-12-13T18:45:59.965Z,65.70
2018-12-13T18:50:45.602Z,34.50
2018-12-13T18:55:31.975Z,21.43
2018-12-13T19:00:16.790Z,22.90
2018-12-13T19:05:01.074Z,15.90
2018-12-13T19:09:46.425Z,11.10
2018-12-13T19:14:32.601Z,7.97
2018-12-13T19:19:17.068Z,9.30
2018-12-13T19:24:04.228Z,11.83
2018-12-13T19:28:49.570Z,10.53
2018-12-13T19:33:34.702Z,9.17
2018-12-13T19:38:20.472Z,8.63
2018-12-13T19:43:06.790Z,8.50
2018-12-13T19:47:54.255Z,8.33
2018-12-13T19:52:39.487Z,9.57
2018-12-13T19:57:24.743Z,11.87
2018-12-13T20:02:10.463Z,11.17
2018-12-13T20:06:58.896Z,11.20
2018-12-13T20:11:43.090Z,12.73
2018-12-13T20:16:28.218Z,12.23
2018-12-13T20:21:13.408Z,11.70
2018-12-13T20:25:57.790Z,9.77
2018-12-13T20:30:42.954Z,11.27
2018-12-13T20:35:31.158Z,11.03
2018-12-13T20:40:16.373Z,11.73
2018-12-13T20:45:01.697Z,10.43
2018-12-13T20:49:47.453Z,10.70
2018-12-13T20:54:34.698Z,13.13
2018-12-13T20:59:19.648Z,12.73
2018-12-13T21:04:06.117Z,8.57
2018-12-13T21:08:50.313Z,10.83
2018-12-13T21:13:34.452Z,13.50
2018-12-13T21:18:22.336Z,13.40
2018-12-13T21:23:06.564Z,11.00
2018-12-13T21:27:52.861Z,9.37
2018-12-13T21:32:37.993Z,8.17
2018-12-13T21:37:22.368Z,8.20
2018-12-13T21:42:07.869Z,8.90
2018-12-13T21:46:53.833Z,8.60
2018-12-13T21:51:38.076Z,8.63
2018-12-13T21:56:23.653Z,8.70
2018-12-13T22:01:08.868Z,11.77
2018-12-13T22:05:54.247Z,13.90
2018-12-13T22:10:39.452Z,11.10
2018-12-13T22:15:28.733Z,13.03
2018-12-13T22:20:13.920Z,9.67
2018-12-13T22:24:58.243Z,8.37
2018-12-13T22:29:43.329Z,9.37
2018-12-13T22:34:32.281Z,7.40
2018-12-13T22:39:17.506Z,6.30
2018-12-13T22:44:02.621Z,6.70
2018-12-13T22:48:48.189Z,7.83
2018-12-13T22:53:34.382Z,6.57
2018-12-13T22:58:19.842Z,7.40
2018-12-13T23:03:05.230Z,7.20
2018-12-13T23:07:49.548Z,6.30
2018-12-13T23:12:34.637Z,6.70
2018-12-13T23:17:20.491Z,6.30
2018-12-13T23:22:05.696Z,6.23
2018-12-13T23:26:51.149Z,5.13
2018-12-13T23:31:36.249Z,6.13
2018-12-13T23:36:21.522Z,6.50
2018-12-13T23:41:05.800Z,6.07
2018-12-13T23:45:51.115Z,5.80
2018-12-13T23:50:36.332Z,7.97
2018-12-13T23:55:21.736Z,6.53
